sensor_id;sensor_type;location;lat;lon;timestamp;temperature;humidity
59855;DHT22;45732;52.850;6.896;2022-07-29T00:00:06;15.90;99.90
59855;DHT22;45732;52.850;6.896;2022-07-29T00:02:32;15.90;99.90
59855;DHT22;45732;52.850;6.896;2022-07-29T00:04:58;15.90;99.90
59855;DHT22;45732;52.850;6.896;2022-07-29T00:07:24;15.90;99.90
59855;DHT22;45732;52.850;6.896;2022-07-29T00:09:50;15.90;99.90
59855;DHT22;45732;52.850;6.896;2022-07-29T00:12:16;15.90;99.90
59855;DHT22;45732;52.850;6.896;2022-07-29T00:14:42;15.80;99.90
59855;DHT22;45732;52.850;6.896;2022-07-29T00:17:07;15.80;99.90
59855;DHT22;45732;52.850;6.896;2022-07-29T00:19:33;15.80;99.90
59855;DHT22;45732;52.850;6.896;2022-07-29T00:22:00;15.80;99.90
59855;DHT22;45732;52.850;6.896;2022-07-29T00:24:26;15.80;99.90
59855;DHT22;45732;52.850;6.896;2022-07-29T00:26:51;15.70;99.90
59855;DHT22;45732;52.850;6.896;2022-07-29T00:29:17;15.70;99.90
59855;DHT22;45732;52.850;6.896;2022-07-29T00:31:43;15.70;99.90
59855;DHT22;45732;52.850;6.896;2022-07-29T00:34:09;15.60;99.90
59855;DHT22;45732;52.850;6.896;2022-07-29T00:36:54;15.60;99.90
59855;DHT22;45732;52.850;6.896;2022-07-29T00:39:20;15.60;99.90
59855;DHT22;45732;52.850;6.896;2022-07-29T00:41:46;15.50;99.90
59855;DHT22;45732;52.850;6.896;2022-07-29T00:44:11;15.50;99.90
59855;DHT22;45732;52.850;6.896;2022-07-29T00:46:37;15.50;99.90
59855;DHT22;45732;52.850;6.896;2022-07-29T00:49:03;15.50;99.90
59855;DHT22;45732;52.850;6.896;2022-07-29T00:51:29;15.50;99.90
59855;DHT22;45732;52.850;6.896;2022-07-29T00:53:56;15.50;99.90
59855;DHT22;45732;52.850;6.896;2022-07-29T00:56:22;15.50;99.90
59855;DHT22;45732;52.850;6.896;2022-07-29T00:58:48;15.50;99.90
59855;DHT22;45732;52.850;6.896;2022-07-29T01:01:16;15.50;99.90
59855;DHT22;45732;52.850;6.896;2022-07-29T01:03:41;15.50;99.90
59855;DHT22;45732;52.850;6.896;2022-07-29T01:06:07;15.50;99.90
59855;DHT22;45732;52.850;6.896;2022-07-29T01:08:36;15.50;99.90
59855;DHT22;45732;52.850;6.896;2022-07-29T01:11:02;15.50;99.90
59855;DHT22;45732;52.850;6.896;2022-07-29T01:13:29;15.50;99.90
59855;DHT22;45732;52.850;6.896;2022-07-29T01:16:01;15.50;99.90
59855;DHT22;45732;52.850;6.896;2022-07-29T01:18:39;15.50;99.90
59855;DHT22;45732;52.850;6.896;2022-07-29T01:26:52;15.50;99.90
59855;DHT22;45732;52.850;6.896;2022-07-29T01:29:31;15.50;99.90
59855;DHT22;45732;52.850;6.896;2022-07-29T01:32:18;15.50;99.90
59855;DHT22;45732;52.850;6.896;2022-07-29T01:34:48;15.50;99.90
59855;DHT22;45732;52.850;6.896;2022-07-29T01:37:19;15.50;99.90
59855;DHT22;45732;52.850;6.896;2022-07-29T01:39:48;15.50;99.90
59855;DHT22;45732;52.850;6.896;2022-07-29T01:42:35;15.50;99.90
59855;DHT22;45732;52.850;6.896;2022-07-29T01:47:39;15.50;99.90
59855;DHT22;45732;52.850;6.896;2022-07-29T01:50:08;15.50;99.90
59855;DHT22;45732;52.850;6.896;2022-07-29T01:52:59;15.50;99.90
59855;DHT22;45732;52.850;6.896;2022-07-29T01:55:28;15.50;99.90
59855;DHT22;45732;52.850;6.896;2022-07-29T01:57:57;15.50;99.90
59855;DHT22;45732;52.850;6.896;2022-07-29T02:00:25;15.50;99.90
59855;DHT22;45732;52.850;6.896;2022-07-29T02:02:53;15.40;99.90
59855;DHT22;45732;52.850;6.896;2022-07-29T02:05:21;15.40;99.90
59855;DHT22;45732;52.850;6.896;2022-07-29T02:07:49;15.40;99.90
59855;DHT22;45732;52.850;6.896;2022-07-29T02:10:21;15.40;99.90
59855;DHT22;45732;52.850;6.896;2022-07-29T02:12:48;15.40;99.90
59855;DHT22;45732;52.850;6.896;2022-07-29T02:15:16;15.40;99.90
59855;DHT22;45732;52.850;6.896;2022-07-29T02:17:47;15.40;99.90
59855;DHT22;45732;52.850;6.896;2022-07-29T02:20:14;15.40;99.90
59855;DHT22;45732;52.850;6.896;2022-07-29T02:22:43;15.40;99.90
59855;DHT22;45732;52.850;6.896;2022-07-29T02:25:10;15.40;99.90
59855;DHT22;45732;52.850;6.896;2022-07-29T02:27:37;15.30;99.90
59855;DHT22;45732;52.850;6.896;2022-07-29T02:30:05;15.30;99.90
59855;DHT22;45732;52.850;6.896;2022-07-29T02:32:32;15.30;99.90
59855;DHT22;45732;52.850;6.896;2022-07-29T02:35:01;15.40;99.90
59855;DHT22;45732;52.850;6.896;2022-07-29T02:37:27;15.30;99.90
59855;DHT22;45732;52.850;6.896;2022-07-29T02:39:55;15.30;99.90
59855;DHT22;45732;52.850;6.896;2022-07-29T02:42:24;15.30;99.90
59855;DHT22;45732;52.850;6.896;2022-07-29T02:44:52;15.30;99.90
59855;DHT22;45732;52.850;6.896;2022-07-29T02:47:36;15.30;99.90
59855;DHT22;45732;52.850;6.896;2022-07-29T02:50:06;15.30;99.90
59855;DHT22;45732;52.850;6.896;2022-07-29T02:55:46;15.30;99.90
59855;DHT22;45732;52.850;6.896;2022-07-29T02:58:27;15.30;99.90
59855;DHT22;45732;52.850;6.896;2022-07-29T03:00:56;15.30;99.90
59855;DHT22;45732;52.850;6.896;2022-07-29T03:03:24;15.30;99.90
59855;DHT22;45732;52.850;6.896;2022-07-29T03:05:54;15.30;99.90
59855;DHT22;45732;52.850;6.896;2022-07-29T03:08:21;15.30;99.90
59855;DHT22;45732;52.850;6.896;2022-07-29T03:10:47;15.30;99.90
59855;DHT22;45732;52.850;6.896;2022-07-29T03:13:14;15.30;99.90
59855;DHT22;45732;52.850;6.896;2022-07-29T03:15:43;15.30;99.90
59855;DHT22;45732;52.850;6.896;2022-07-29T03:18:09;15.30;99.90
59855;DHT22;45732;52.850;6.896;2022-07-29T03:20:37;15.30;99.90
59855;DHT22;45732;52.850;6.896;2022-07-29T03:23:03;15.30;99.90
59855;DHT22;45732;52.850;6.896;2022-07-29T03:25:28;15.20;99.90
59855;DHT22;45732;52.850;6.896;2022-07-29T03:27:54;15.30;99.90
59855;DHT22;45732;52.850;6.896;2022-07-29T03:30:20;15.20;99.90
59855;DHT22;45732;52.850;6.896;2022-07-29T03:32:45;15.20;99.90
59855;DHT22;45732;52.850;6.896;2022-07-29T03:35:11;15.20;99.90
59855;DHT22;45732;52.850;6.896;2022-07-29T03:37:37;15.20;99.90
59855;DHT22;45732;52.850;6.896;2022-07-29T03:40:07;15.20;99.90
59855;DHT22;45732;52.850;6.896;2022-07-29T03:42:36;15.20;99.90
59855;DHT22;45732;52.850;6.896;2022-07-29T03:45:06;15.20;99.90
59855;DHT22;45732;52.850;6.896;2022-07-29T03:47:34;15.20;99.90
59855;DHT22;45732;52.850;6.896;2022-07-29T03:50:05;15.20;99.90
59855;DHT22;45732;52.850;6.896;2022-07-29T03:52:32;15.10;99.90
59855;DHT22;45732;52.850;6.896;2022-07-29T03:54:58;15.10;99.90
59855;DHT22;45732;52.850;6.896;2022-07-29T03:57:25;15.10;99.90
59855;DHT22;45732;52.850;6.896;2022-07-29T03:59:53;15.20;99.90
59855;DHT22;45732;52.850;6.896;2022-07-29T04:02:20;15.10;99.90
59855;DHT22;45732;52.850;6.896;2022-07-29T04:04:46;15.20;99.90
59855;DHT22;45732;52.850;6.896;2022-07-29T04:07:13;15.10;99.90
59855;DHT22;45732;52.850;6.896;2022-07-29T04:09:39;15.10;99.90
59855;DHT22;45732;52.850;6.896;2022-07-29T04:12:06;15.10;99.90
59855;DHT22;45732;52.850;6.896;2022-07-29T04:14:32;15.20;99.90
59855;DHT22;45732;52.850;6.896;2022-07-29T04:16:59;15.10;99.90
59855;DHT22;45732;52.850;6.896;2022-07-29T04:19:25;15.10;99.90
59855;DHT22;45732;52.850;6.896;2022-07-29T04:21:50;15.10;99.90
59855;DHT22;45732;52.850;6.896;2022-07-29T04:24:16;15.10;99.90
59855;DHT22;45732;52.850;6.896;2022-07-29T04:26:42;15.10;99.90
59855;DHT22;45732;52.850;6.896;2022-07-29T04:29:08;15.10;99.90
59855;DHT22;45732;52.850;6.896;2022-07-29T04:31:34;15.20;99.90
59855;DHT22;45732;52.850;6.896;2022-07-29T04:34:00;15.10;99.90
59855;DHT22;45732;52.850;6.896;2022-07-29T04:36:25;15.10;99.90
59855;DHT22;45732;52.850;6.896;2022-07-29T04:38:51;15.10;99.90
59855;DHT22;45732;52.850;6.896;2022-07-29T04:41:17;15.10;99.90
59855;DHT22;45732;52.850;6.896;2022-07-29T04:43:42;15.10;99.90
59855;DHT22;45732;52.850;6.896;2022-07-29T04:46:08;15.20;99.90
59855;DHT22;45732;52.850;6.896;2022-07-29T04:48:34;15.20;99.90
59855;DHT22;45732;52.850;6.896;2022-07-29T04:50:59;15.20;99.90
59855;DHT22;45732;52.850;6.896;2022-07-29T04:53:25;15.20;99.90
59855;DHT22;45732;52.850;6.896;2022-07-29T04:55:51;15.20;99.90
59855;DHT22;45732;52.850;6.896;2022-07-29T04:58:17;15.20;99.90
59855;DHT22;45732;52.850;6.896;2022-07-29T05:00:43;15.30;99.90
59855;DHT22;45732;52.850;6.896;2022-07-29T05:03:09;15.20;99.90
59855;DHT22;45732;52.850;6.896;2022-07-29T05:05:34;15.20;99.90
59855;DHT22;45732;52.850;6.896;2022-07-29T05:08:00;15.30;99.90
59855;DHT22;45732;52.850;6.896;2022-07-29T05:10:26;15.30;99.90
59855;DHT22;45732;52.850;6.896;2022-07-29T05:12:51;15.40;99.90
59855;DHT22;45732;52.850;6.896;2022-07-29T05:15:17;15.40;99.90
59855;DHT22;45732;52.850;6.896;2022-07-29T05:17:44;15.40;99.90
59855;DHT22;45732;52.850;6.896;2022-07-29T05:20:10;15.50;99.90
59855;DHT22;45732;52.850;6.896;2022-07-29T05:22:35;15.50;99.90
59855;DHT22;45732;52.850;6.896;2022-07-29T05:25:01;15.50;99.90
59855;DHT22;45732;52.850;6.896;2022-07-29T05:27:28;15.60;99.90
59855;DHT22;45732;52.850;6.896;2022-07-29T05:29:53;15.60;99.90
59855;DHT22;45732;52.850;6.896;2022-07-29T05:32:19;15.70;99.90
59855;DHT22;45732;52.850;6.896;2022-07-29T05:34:44;15.70;99.90
59855;DHT22;45732;52.850;6.896;2022-07-29T05:37:10;15.80;99.90
59855;DHT22;45732;52.850;6.896;2022-07-29T05:39:39;15.90;99.90
59855;DHT22;45732;52.850;6.896;2022-07-29T05:42:11;15.90;99.90
59855;DHT22;45732;52.850;6.896;2022-07-29T05:44:38;16.00;99.90
59855;DHT22;45732;52.850;6.896;2022-07-29T05:47:04;16.00;99.90
59855;DHT22;45732;52.850;6.896;2022-07-29T05:49:30;16.00;99.90
59855;DHT22;45732;52.850;6.896;2022-07-29T05:51:55;16.00;99.90
59855;DHT22;45732;52.850;6.896;2022-07-29T05:54:21;16.00;99.90
59855;DHT22;45732;52.850;6.896;2022-07-29T05:56:47;16.00;99.90
59855;DHT22;45732;52.850;6.896;2022-07-29T05:59:12;15.90;99.90
59855;DHT22;45732;52.850;6.896;2022-07-29T06:01:38;15.90;99.90
59855;DHT22;45732;52.850;6.896;2022-07-29T06:04:05;15.90;99.90
59855;DHT22;45732;52.850;6.896;2022-07-29T06:06:32;15.80;99.90
59855;DHT22;45732;52.850;6.896;2022-07-29T06:08:59;15.80;99.90
59855;DHT22;45732;52.850;6.896;2022-07-29T06:11:24;15.80;99.90
59855;DHT22;45732;52.850;6.896;2022-07-29T06:13:50;15.80;99.90
59855;DHT22;45732;52.850;6.896;2022-07-29T06:16:16;15.90;99.90
59855;DHT22;45732;52.850;6.896;2022-07-29T06:18:41;15.90;99.90
59855;DHT22;45732;52.850;6.896;2022-07-29T06:21:08;15.90;99.90
59855;DHT22;45732;52.850;6.896;2022-07-29T06:23:38;16.00;99.90
59855;DHT22;45732;52.850;6.896;2022-07-29T06:26:05;16.00;99.90
59855;DHT22;45732;52.850;6.896;2022-07-29T06:28:31;16.10;99.90
59855;DHT22;45732;52.850;6.896;2022-07-29T06:30:57;16.10;99.90
59855;DHT22;45732;52.850;6.896;2022-07-29T06:33:23;16.20;99.90
59855;DHT22;45732;52.850;6.896;2022-07-29T06:35:49;16.30;99.90
59855;DHT22;45732;52.850;6.896;2022-07-29T06:38:15;16.30;99.90
59855;DHT22;45732;52.850;6.896;2022-07-29T06:40:42;16.30;99.90
59855;DHT22;45732;52.850;6.896;2022-07-29T06:43:37;16.40;99.90
59855;DHT22;45732;52.850;6.896;2022-07-29T06:46:06;16.40;99.90
59855;DHT22;45732;52.850;6.896;2022-07-29T06:48:33;16.50;99.90
59855;DHT22;45732;52.850;6.896;2022-07-29T06:51:00;16.50;99.90
59855;DHT22;45732;52.850;6.896;2022-07-29T06:53:26;16.60;99.90
59855;DHT22;45732;52.850;6.896;2022-07-29T06:55:52;16.60;99.90
59855;DHT22;45732;52.850;6.896;2022-07-29T06:58:18;16.70;99.90
59855;DHT22;45732;52.850;6.896;2022-07-29T07:00:47;16.80;99.90
59855;DHT22;45732;52.850;6.896;2022-07-29T07:03:13;16.80;99.90
59855;DHT22;45732;52.850;6.896;2022-07-29T07:05:39;16.80;99.90
59855;DHT22;45732;52.850;6.896;2022-07-29T07:08:06;16.90;99.90
59855;DHT22;45732;52.850;6.896;2022-07-29T07:10:32;16.90;99.90
59855;DHT22;45732;52.850;6.896;2022-07-29T07:12:59;17.00;99.90
59855;DHT22;45732;52.850;6.896;2022-07-29T07:15:25;17.00;99.90
59855;DHT22;45732;52.850;6.896;2022-07-29T07:17:50;17.10;99.90
59855;DHT22;45732;52.850;6.896;2022-07-29T07:20:17;17.10;99.90
59855;DHT22;45732;52.850;6.896;2022-07-29T07:22:43;17.20;99.90
59855;DHT22;45732;52.850;6.896;2022-07-29T07:25:09;17.30;99.90
59855;DHT22;45732;52.850;6.896;2022-07-29T07:27:36;17.20;99.90
59855;DHT22;45732;52.850;6.896;2022-07-29T07:30:03;17.30;99.90
59855;DHT22;45732;52.850;6.896;2022-07-29T07:32:31;17.30;99.90
59855;DHT22;45732;52.850;6.896;2022-07-29T07:34:57;17.40;99.90
59855;DHT22;45732;52.850;6.896;2022-07-29T07:37:24;17.40;99.90
59855;DHT22;45732;52.850;6.896;2022-07-29T07:39:53;17.50;99.90
59855;DHT22;45732;52.850;6.896;2022-07-29T07:42:19;17.50;99.90
59855;DHT22;45732;52.850;6.896;2022-07-29T07:44:45;17.60;99.90
59855;DHT22;45732;52.850;6.896;2022-07-29T07:47:14;17.60;99.90
59855;DHT22;45732;52.850;6.896;2022-07-29T07:49:41;17.60;99.90
59855;DHT22;45732;52.850;6.896;2022-07-29T07:52:06;17.70;99.90
59855;DHT22;45732;52.850;6.896;2022-07-29T07:54:32;17.70;99.90
59855;DHT22;45732;52.850;6.896;2022-07-29T07:56:57;17.80;99.90
59855;DHT22;45732;52.850;6.896;2022-07-29T07:59:23;17.80;99.90
59855;DHT22;45732;52.850;6.896;2022-07-29T08:01:50;17.90;99.90
59855;DHT22;45732;52.850;6.896;2022-07-29T08:04:15;17.90;99.90
59855;DHT22;45732;52.850;6.896;2022-07-29T08:06:41;18.00;99.90
59855;DHT22;45732;52.850;6.896;2022-07-29T08:09:07;18.00;99.90
59855;DHT22;45732;52.850;6.896;2022-07-29T08:11:33;18.10;99.90
59855;DHT22;45732;52.850;6.896;2022-07-29T08:13:59;18.20;99.90
59855;DHT22;45732;52.850;6.896;2022-07-29T08:16:27;18.20;99.90
59855;DHT22;45732;52.850;6.896;2022-07-29T08:18:53;18.20;99.90
59855;DHT22;45732;52.850;6.896;2022-07-29T08:21:22;18.30;99.90
59855;DHT22;45732;52.850;6.896;2022-07-29T08:23:49;18.30;99.90
59855;DHT22;45732;52.850;6.896;2022-07-29T08:26:21;18.30;99.90
59855;DHT22;45732;52.850;6.896;2022-07-29T08:28:47;18.40;99.90
59855;DHT22;45732;52.850;6.896;2022-07-29T08:31:15;18.40;99.90
59855;DHT22;45732;52.850;6.896;2022-07-29T08:33:42;18.40;99.90
59855;DHT22;45732;52.850;6.896;2022-07-29T08:36:08;18.50;99.90
59855;DHT22;45732;52.850;6.896;2022-07-29T08:38:34;18.50;99.90
59855;DHT22;45732;52.850;6.896;2022-07-29T08:41:03;18.50;99.90
59855;DHT22;45732;52.850;6.896;2022-07-29T08:43:29;18.50;99.90
59855;DHT22;45732;52.850;6.896;2022-07-29T08:45:54;18.50;99.90
59855;DHT22;45732;52.850;6.896;2022-07-29T08:48:24;18.40;99.90
59855;DHT22;45732;52.850;6.896;2022-07-29T08:50:52;18.50;99.90
59855;DHT22;45732;52.850;6.896;2022-07-29T08:53:20;18.50;99.90
59855;DHT22;45732;52.850;6.896;2022-07-29T08:55:47;18.50;99.90
59855;DHT22;45732;52.850;6.896;2022-07-29T08:58:14;18.60;99.90
59855;DHT22;45732;52.850;6.896;2022-07-29T09:00:47;18.70;99.90
59855;DHT22;45732;52.850;6.896;2022-07-29T09:03:17;18.70;99.90
59855;DHT22;45732;52.850;6.896;2022-07-29T09:05:45;18.90;99.90
59855;DHT22;45732;52.850;6.896;2022-07-29T09:08:12;19.00;99.90
59855;DHT22;45732;52.850;6.896;2022-07-29T09:10:39;19.10;99.90
59855;DHT22;45732;52.850;6.896;2022-07-29T09:13:05;19.20;99.90
59855;DHT22;45732;52.850;6.896;2022-07-29T09:15:31;19.20;99.90
59855;DHT22;45732;52.850;6.896;2022-07-29T09:17:56;19.30;99.90
59855;DHT22;45732;52.850;6.896;2022-07-29T09:20:24;19.30;99.90
59855;DHT22;45732;52.850;6.896;2022-07-29T09:22:51;19.40;99.90
59855;DHT22;45732;52.850;6.896;2022-07-29T09:25:37;19.40;99.90
59855;DHT22;45732;52.850;6.896;2022-07-29T09:30:33;19.50;99.90
59855;DHT22;45732;52.850;6.896;2022-07-29T09:33:00;19.50;99.90
59855;DHT22;45732;52.850;6.896;2022-07-29T09:35:27;19.50;99.90
59855;DHT22;45732;52.850;6.896;2022-07-29T09:37:54;19.50;99.90
59855;DHT22;45732;52.850;6.896;2022-07-29T09:40:27;19.60;99.90
59855;DHT22;45732;52.850;6.896;2022-07-29T09:42:54;19.60;99.90
59855;DHT22;45732;52.850;6.896;2022-07-29T09:45:31;19.70;99.90
59855;DHT22;45732;52.850;6.896;2022-07-29T09:47:58;19.70;99.90
59855;DHT22;45732;52.850;6.896;2022-07-29T09:50:39;19.70;99.90
59855;DHT22;45732;52.850;6.896;2022-07-29T09:53:05;19.70;99.90
59855;DHT22;45732;52.850;6.896;2022-07-29T09:55:31;19.80;99.90
59855;DHT22;45732;52.850;6.896;2022-07-29T09:58:27;19.70;99.90
59855;DHT22;45732;52.850;6.896;2022-07-29T10:00:53;19.80;99.90
59855;DHT22;45732;52.850;6.896;2022-07-29T10:03:20;19.80;99.90
59855;DHT22;45732;52.850;6.896;2022-07-29T10:05:47;19.80;99.90
59855;DHT22;45732;52.850;6.896;2022-07-29T10:08:28;19.80;99.90
59855;DHT22;45732;52.850;6.896;2022-07-29T10:11:12;19.80;99.90
59855;DHT22;45732;52.850;6.896;2022-07-29T10:13:38;19.80;99.90
59855;DHT22;45732;52.850;6.896;2022-07-29T10:16:04;19.80;99.90
59855;DHT22;45732;52.850;6.896;2022-07-29T10:18:32;19.90;99.90
59855;DHT22;45732;52.850;6.896;2022-07-29T10:20:58;19.90;99.90
59855;DHT22;45732;52.850;6.896;2022-07-29T10:23:30;19.90;99.90
59855;DHT22;45732;52.850;6.896;2022-07-29T10:25:56;19.90;99.90
59855;DHT22;45732;52.850;6.896;2022-07-29T10:28:21;19.90;99.90
59855;DHT22;45732;52.850;6.896;2022-07-29T10:30:51;19.90;99.90
59855;DHT22;45732;52.850;6.896;2022-07-29T10:33:51;19.90;99.90
59855;DHT22;45732;52.850;6.896;2022-07-29T10:39:24;19.80;99.90
59855;DHT22;45732;52.850;6.896;2022-07-29T10:42:06;19.80;99.90
59855;DHT22;45732;52.850;6.896;2022-07-29T10:44:35;19.70;99.90
59855;DHT22;45732;52.850;6.896;2022-07-29T10:47:05;19.70;99.90
59855;DHT22;45732;52.850;6.896;2022-07-29T10:49:30;19.60;99.90
59855;DHT22;45732;52.850;6.896;2022-07-29T10:52:06;19.60;99.90
59855;DHT22;45732;52.850;6.896;2022-07-29T10:54:40;19.60;99.90
59855;DHT22;45732;52.850;6.896;2022-07-29T10:57:25;19.50;99.90
59855;DHT22;45732;52.850;6.896;2022-07-29T11:05:09;19.40;99.90
59855;DHT22;45732;52.850;6.896;2022-07-29T11:07:36;19.40;99.90
59855;DHT22;45732;52.850;6.896;2022-07-29T11:15:11;19.40;99.90
59855;DHT22;45732;52.850;6.896;2022-07-29T11:20:45;19.40;99.90
59855;DHT22;45732;52.850;6.896;2022-07-29T11:23:29;19.40;99.90
59855;DHT22;45732;52.850;6.896;2022-07-29T11:26:15;19.50;99.90
59855;DHT22;45732;52.850;6.896;2022-07-29T11:31:33;19.50;99.90
59855;DHT22;45732;52.850;6.896;2022-07-29T11:39:44;19.50;99.90
59855;DHT22;45732;52.850;6.896;2022-07-29T11:47:23;19.70;99.90
59855;DHT22;45732;52.850;6.896;2022-07-29T11:49:50;19.70;99.90
59855;DHT22;45732;52.850;6.896;2022-07-29T11:52:17;19.80;99.90
59855;DHT22;45732;52.850;6.896;2022-07-29T11:54:43;19.80;99.90
59855;DHT22;45732;52.850;6.896;2022-07-29T11:57:09;19.90;99.90
59855;DHT22;45732;52.850;6.896;2022-07-29T11:59:40;19.90;99.90
59855;DHT22;45732;52.850;6.896;2022-07-29T12:02:07;20.10;99.90
59855;DHT22;45732;52.850;6.896;2022-07-29T12:04:34;20.10;99.90
59855;DHT22;45732;52.850;6.896;2022-07-29T12:07:00;20.20;99.90
59855;DHT22;45732;52.850;6.896;2022-07-29T12:09:26;20.30;99.90
59855;DHT22;45732;52.850;6.896;2022-07-29T12:11:58;20.40;99.90
59855;DHT22;45732;52.850;6.896;2022-07-29T12:14:28;20.40;99.90
59855;DHT22;45732;52.850;6.896;2022-07-29T12:16:54;20.50;99.90
59855;DHT22;45732;52.850;6.896;2022-07-29T12:19:20;20.60;99.90
59855;DHT22;45732;52.850;6.896;2022-07-29T12:21:47;20.70;99.90
59855;DHT22;45732;52.850;6.896;2022-07-29T12:24:13;20.70;99.90
59855;DHT22;45732;52.850;6.896;2022-07-29T12:26:58;20.80;99.90
59855;DHT22;45732;52.850;6.896;2022-07-29T12:29:25;20.80;99.90
59855;DHT22;45732;52.850;6.896;2022-07-29T12:31:54;20.90;99.90
59855;DHT22;45732;52.850;6.896;2022-07-29T12:34:22;20.90;99.90
59855;DHT22;45732;52.850;6.896;2022-07-29T12:36:49;21.00;99.90
59855;DHT22;45732;52.850;6.896;2022-07-29T12:39:16;21.00;99.90
59855;DHT22;45732;52.850;6.896;2022-07-29T12:41:43;21.10;99.90
59855;DHT22;45732;52.850;6.896;2022-07-29T12:44:09;21.10;99.90
59855;DHT22;45732;52.850;6.896;2022-07-29T12:46:35;21.10;99.90
59855;DHT22;45732;52.850;6.896;2022-07-29T12:49:01;21.20;99.90
59855;DHT22;45732;52.850;6.896;2022-07-29T12:51:36;21.10;99.90
59855;DHT22;45732;52.850;6.896;2022-07-29T12:54:13;21.10;99.90
59855;DHT22;45732;52.850;6.896;2022-07-29T12:56:43;21.20;99.90
59855;DHT22;45732;52.850;6.896;2022-07-29T12:59:20;21.20;99.90
59855;DHT22;45732;52.850;6.896;2022-07-29T13:01:47;21.30;99.90
59855;DHT22;45732;52.850;6.896;2022-07-29T13:04:31;21.30;99.90
59855;DHT22;45732;52.850;6.896;2022-07-29T13:07:02;21.50;99.90
59855;DHT22;45732;52.850;6.896;2022-07-29T13:12:07;21.60;99.90
59855;DHT22;45732;52.850;6.896;2022-07-29T13:14:39;21.70;99.90
59855;DHT22;45732;52.850;6.896;2022-07-29T13:19:42;21.90;99.90
59855;DHT22;45732;52.850;6.896;2022-07-29T13:22:13;22.00;99.90
59855;DHT22;45732;52.850;6.896;2022-07-29T13:24:52;22.10;99.90
59855;DHT22;45732;52.850;6.896;2022-07-29T13:27:20;22.10;99.90
59855;DHT22;45732;52.850;6.896;2022-07-29T13:29:47;22.20;99.90
59855;DHT22;45732;52.850;6.896;2022-07-29T13:32:13;22.20;99.90
59855;DHT22;45732;52.850;6.896;2022-07-29T13:34:39;22.30;99.90
59855;DHT22;45732;52.850;6.896;2022-07-29T13:37:06;22.30;99.90
59855;DHT22;45732;52.850;6.896;2022-07-29T13:39:31;22.40;99.90
59855;DHT22;45732;52.850;6.896;2022-07-29T13:41:57;22.40;99.90
59855;DHT22;45732;52.850;6.896;2022-07-29T13:44:23;22.40;99.90
59855;DHT22;45732;52.850;6.896;2022-07-29T13:46:49;22.50;99.90
59855;DHT22;45732;52.850;6.896;2022-07-29T13:49:15;22.50;99.90
59855;DHT22;45732;52.850;6.896;2022-07-29T13:51:41;22.50;99.90
59855;DHT22;45732;52.850;6.896;2022-07-29T13:54:06;22.60;99.90
59855;DHT22;45732;52.850;6.896;2022-07-29T13:56:32;22.70;99.90
59855;DHT22;45732;52.850;6.896;2022-07-29T13:58:58;22.80;99.90
59855;DHT22;45732;52.850;6.896;2022-07-29T14:01:24;22.80;99.90
59855;DHT22;45732;52.850;6.896;2022-07-29T14:03:50;22.80;99.90
59855;DHT22;45732;52.850;6.896;2022-07-29T14:06:16;22.80;99.90
59855;DHT22;45732;52.850;6.896;2022-07-29T14:08:41;22.80;99.90
59855;DHT22;45732;52.850;6.896;2022-07-29T14:11:08;22.80;99.90
59855;DHT22;45732;52.850;6.896;2022-07-29T14:13:33;22.80;99.90
59855;DHT22;45732;52.850;6.896;2022-07-29T14:15:59;22.80;99.90
59855;DHT22;45732;52.850;6.896;2022-07-29T14:18:25;22.80;99.90
59855;DHT22;45732;52.850;6.896;2022-07-29T14:20:50;22.80;99.90
59855;DHT22;45732;52.850;6.896;2022-07-29T14:23:17;22.80;99.90
59855;DHT22;45732;52.850;6.896;2022-07-29T14:25:43;22.90;99.90
59855;DHT22;45732;52.850;6.896;2022-07-29T14:28:08;22.90;99.90
59855;DHT22;45732;52.850;6.896;2022-07-29T14:30:34;22.90;99.90
59855;DHT22;45732;52.850;6.896;2022-07-29T14:33:00;22.90;99.90
59855;DHT22;45732;52.850;6.896;2022-07-29T14:35:25;22.90;99.90
59855;DHT22;45732;52.850;6.896;2022-07-29T14:37:51;22.80;99.90
59855;DHT22;45732;52.850;6.896;2022-07-29T14:40:17;22.80;99.90
59855;DHT22;45732;52.850;6.896;2022-07-29T14:42:42;22.70;99.90
59855;DHT22;45732;52.850;6.896;2022-07-29T14:45:09;22.70;99.90
59855;DHT22;45732;52.850;6.896;2022-07-29T14:47:35;22.70;99.90
59855;DHT22;45732;52.850;6.896;2022-07-29T14:50:01;22.60;99.90
59855;DHT22;45732;52.850;6.896;2022-07-29T14:52:27;22.60;99.90
59855;DHT22;45732;52.850;6.896;2022-07-29T14:54:52;22.60;99.90
59855;DHT22;45732;52.850;6.896;2022-07-29T14:57:18;22.60;99.90
59855;DHT22;45732;52.850;6.896;2022-07-29T14:59:44;22.60;99.90
59855;DHT22;45732;52.850;6.896;2022-07-29T15:02:09;22.50;99.90
59855;DHT22;45732;52.850;6.896;2022-07-29T15:04:35;22.50;99.90
59855;DHT22;45732;52.850;6.896;2022-07-29T15:07:01;22.50;99.90
59855;DHT22;45732;52.850;6.896;2022-07-29T15:09:26;22.50;99.90
59855;DHT22;45732;52.850;6.896;2022-07-29T15:11:52;22.60;99.90
59855;DHT22;45732;52.850;6.896;2022-07-29T15:14:18;22.70;99.90
59855;DHT22;45732;52.850;6.896;2022-07-29T15:16:43;22.80;99.90
59855;DHT22;45732;52.850;6.896;2022-07-29T15:19:12;22.90;99.90
59855;DHT22;45732;52.850;6.896;2022-07-29T15:21:38;23.00;99.90
59855;DHT22;45732;52.850;6.896;2022-07-29T15:24:04;23.20;99.90
59855;DHT22;45732;52.850;6.896;2022-07-29T15:26:32;23.30;99.90
59855;DHT22;45732;52.850;6.896;2022-07-29T15:28:58;23.40;99.90
59855;DHT22;45732;52.850;6.896;2022-07-29T15:31:24;23.40;99.90
59855;DHT22;45732;52.850;6.896;2022-07-29T15:33:50;23.40;99.90
59855;DHT22;45732;52.850;6.896;2022-07-29T15:36:50;23.40;99.90
59855;DHT22;45732;52.850;6.896;2022-07-29T15:39:35;23.40;99.90
59855;DHT22;45732;52.850;6.896;2022-07-29T15:42:09;23.40;99.90
59855;DHT22;45732;52.850;6.896;2022-07-29T15:44:35;23.50;99.90
59855;DHT22;45732;52.850;6.896;2022-07-29T15:47:01;23.50;99.90
59855;DHT22;45732;52.850;6.896;2022-07-29T15:49:38;23.60;99.90
59855;DHT22;45732;52.850;6.896;2022-07-29T15:52:07;23.60;99.90
59855;DHT22;45732;52.850;6.896;2022-07-29T15:54:34;23.60;99.90
59855;DHT22;45732;52.850;6.896;2022-07-29T15:57:01;23.70;99.90
59855;DHT22;45732;52.850;6.896;2022-07-29T15:59:27;23.70;99.90
59855;DHT22;45732;52.850;6.896;2022-07-29T16:01:53;23.70;99.90
59855;DHT22;45732;52.850;6.896;2022-07-29T16:04:19;23.70;99.90
59855;DHT22;45732;52.850;6.896;2022-07-29T16:06:45;23.60;99.90
59855;DHT22;45732;52.850;6.896;2022-07-29T16:09:12;23.60;99.90
59855;DHT22;45732;52.850;6.896;2022-07-29T16:11:40;23.60;99.90
59855;DHT22;45732;52.850;6.896;2022-07-29T16:14:07;23.50;99.90
59855;DHT22;45732;52.850;6.896;2022-07-29T16:16:33;23.50;99.90
59855;DHT22;45732;52.850;6.896;2022-07-29T16:18:59;23.50;99.90
59855;DHT22;45732;52.850;6.896;2022-07-29T16:21:24;23.60;99.90
59855;DHT22;45732;52.850;6.896;2022-07-29T16:23:50;23.50;99.90